sensor_id;sensor_type;location;lat;lon;timestamp;P1;durP1;ratioP1;P2;durP2;ratioP2
56457;SDS011;42360;42.918;12.366;2023-05-06T00:00:47;3.85;;;2.70;;
56457;SDS011;42360;42.918;12.366;2023-05-06T00:03:13;2.47;;;2.28;;
56457;SDS011;42360;42.918;12.366;2023-05-06T00:05:38;2.67;;;2.45;;
56457;SDS011;42360;42.918;12.366;2023-05-06T00:08:04;3.20;;;2.47;;
56457;SDS011;42360;42.918;12.366;2023-05-06T00:10:30;2.40;;;2.20;;
56457;SDS011;42360;42.918;12.366;2023-05-06T00:12:56;2.90;;;2.65;;
56457;SDS011;42360;42.918;12.366;2023-05-06T00:15:21;3.22;;;2.92;;
56457;SDS011;42360;42.918;12.366;2023-05-06T00:17:47;2.60;;;2.40;;
56457;SDS011;42360;42.918;12.366;2023-05-06T00:20:12;3.88;;;2.60;;
56457;SDS011;42360;42.918;12.366;2023-05-06T00:22:38;3.20;;;2.70;;
56457;SDS011;42360;42.918;12.366;2023-05-06T00:25:04;4.70;;;2.55;;
56457;SDS011;42360;42.918;12.366;2023-05-06T00:27:30;4.18;;;2.60;;
56457;SDS011;42360;42.918;12.366;2023-05-06T00:29:56;2.70;;;2.38;;
56457;SDS011;42360;42.918;12.366;2023-05-06T00:32:22;2.70;;;2.35;;
56457;SDS011;42360;42.918;12.366;2023-05-06T00:34:47;3.90;;;2.53;;
56457;SDS011;42360;42.918;12.366;2023-05-06T00:37:13;3.22;;;2.92;;
56457;SDS011;42360;42.918;12.366;2023-05-06T00:39:38;2.97;;;2.67;;
56457;SDS011;42360;42.918;12.366;2023-05-06T00:42:03;2.60;;;2.40;;
56457;SDS011;42360;42.918;12.366;2023-05-06T00:44:29;3.53;;;2.53;;
56457;SDS011;42360;42.918;12.366;2023-05-06T00:46:55;3.15;;;2.55;;
56457;SDS011;42360;42.918;12.366;2023-05-06T00:49:22;3.03;;;2.30;;
56457;SDS011;42360;42.918;12.366;2023-05-06T00:51:48;4.70;;;2.30;;
56457;SDS011;42360;42.918;12.366;2023-05-06T00:54:15;3.20;;;2.90;;
56457;SDS011;42360;42.918;12.366;2023-05-06T00:56:41;2.85;;;2.47;;
56457;SDS011;42360;42.918;12.366;2023-05-06T00:59:06;2.88;;;2.55;;
56457;SDS011;42360;42.918;12.366;2023-05-06T01:01:32;4.05;;;2.28;;
56457;SDS011;42360;42.918;12.366;2023-05-06T01:03:57;3.97;;;2.88;;
56457;SDS011;42360;42.918;12.366;2023-05-06T01:09:31;4.18;;;3.10;;
56457;SDS011;42360;42.918;12.366;2023-05-06T01:12:09;4.50;;;3.13;;
56457;SDS011;42360;42.918;12.366;2023-05-06T01:15:16;3.25;;;2.95;;
56457;SDS011;42360;42.918;12.366;2023-05-06T01:17:44;2.60;;;2.40;;
56457;SDS011;42360;42.918;12.366;2023-05-06T01:20:15;2.35;;;2.10;;
56457;SDS011;42360;42.918;12.366;2023-05-06T01:22:42;4.45;;;2.38;;
56457;SDS011;42360;42.918;12.366;2023-05-06T01:25:16;3.05;;;2.45;;
56457;SDS011;42360;42.918;12.366;2023-05-06T01:27:44;3.17;;;2.25;;
56457;SDS011;42360;42.918;12.366;2023-05-06T01:30:10;3.17;;;2.38;;
56457;SDS011;42360;42.918;12.366;2023-05-06T01:32:59;2.92;;;2.35;;
56457;SDS011;42360;42.918;12.366;2023-05-06T01:38:28;2.88;;;2.60;;
56457;SDS011;42360;42.918;12.366;2023-05-06T01:40:59;5.43;;;2.63;;
56457;SDS011;42360;42.918;12.366;2023-05-06T01:43:27;2.67;;;2.40;;
56457;SDS011;42360;42.918;12.366;2023-05-06T01:45:57;3.28;;;2.38;;
56457;SDS011;42360;42.918;12.366;2023-05-06T01:48:25;2.33;;;1.60;;
56457;SDS011;42360;42.918;12.366;2023-05-06T01:50:52;2.88;;;1.70;;
56457;SDS011;42360;42.918;12.366;2023-05-06T01:53:17;2.38;;;1.45;;
56457;SDS011;42360;42.918;12.366;2023-05-06T01:55:43;1.48;;;1.38;;
56457;SDS011;42360;42.918;12.366;2023-05-06T01:58:08;2.22;;;1.40;;
56457;SDS011;42360;42.918;12.366;2023-05-06T02:00:36;4.78;;;1.50;;
56457;SDS011;42360;42.918;12.366;2023-05-06T02:03:02;1.98;;;1.40;;
56457;SDS011;42360;42.918;12.366;2023-05-06T02:05:27;2.22;;;1.65;;
56457;SDS011;42360;42.918;12.366;2023-05-06T02:07:53;1.73;;;1.63;;
56457;SDS011;42360;42.918;12.366;2023-05-06T02:10:18;1.70;;;1.58;;
56457;SDS011;42360;42.918;12.366;2023-05-06T02:12:44;2.83;;;1.67;;
56457;SDS011;42360;42.918;12.366;2023-05-06T02:15:10;1.60;;;1.48;;
56457;SDS011;42360;42.918;12.366;2023-05-06T02:17:36;1.63;;;1.52;;
56457;SDS011;42360;42.918;12.366;2023-05-06T02:20:02;1.75;;;1.65;;
56457;SDS011;42360;42.918;12.366;2023-05-06T02:22:27;1.75;;;1.65;;
56457;SDS011;42360;42.918;12.366;2023-05-06T02:24:53;2.72;;;1.83;;
56457;SDS011;42360;42.918;12.366;2023-05-06T02:27:18;2.55;;;2.13;;
56457;SDS011;42360;42.918;12.366;2023-05-06T02:29:45;3.03;;;2.28;;
56457;SDS011;42360;42.918;12.366;2023-05-06T02:32:10;2.60;;;2.40;;
56457;SDS011;42360;42.918;12.366;2023-05-06T02:34:36;2.40;;;2.20;;
56457;SDS011;42360;42.918;12.366;2023-05-06T02:37:01;2.47;;;2.13;;
56457;SDS011;42360;42.918;12.366;2023-05-06T02:39:27;2.60;;;2.40;;
56457;SDS011;42360;42.918;12.366;2023-05-06T02:41:53;3.35;;;2.17;;
56457;SDS011;42360;42.918;12.366;2023-05-06T02:44:18;3.15;;;2.00;;
56457;SDS011;42360;42.918;12.366;2023-05-06T02:46:43;1.80;;;1.70;;
56457;SDS011;42360;42.918;12.366;2023-05-06T02:49:09;2.15;;;1.80;;
56457;SDS011;42360;42.918;12.366;2023-05-06T02:51:35;2.42;;;1.80;;
56457;SDS011;42360;42.918;12.366;2023-05-06T02:54:00;1.90;;;1.80;;
56457;SDS011;42360;42.918;12.366;2023-05-06T02:56:25;2.03;;;1.77;;
56457;SDS011;42360;42.918;12.366;2023-05-06T02:58:51;1.60;;;1.50;;
56457;SDS011;42360;42.918;12.366;2023-05-06T03:01:17;2.00;;;1.70;;
56457;SDS011;42360;42.918;12.366;2023-05-06T03:03:42;1.88;;;1.77;;
56457;SDS011;42360;42.918;12.366;2023-05-06T03:06:08;2.10;;;1.73;;
56457;SDS011;42360;42.918;12.366;2023-05-06T03:08:33;2.10;;;1.90;;
56457;SDS011;42360;42.918;12.366;2023-05-06T03:10:59;2.95;;;1.95;;
56457;SDS011;42360;42.918;12.366;2023-05-06T03:13:24;1.63;;;1.52;;
56457;SDS011;42360;42.918;12.366;2023-05-06T03:15:53;2.70;;;2.00;;
56457;SDS011;42360;42.918;12.366;2023-05-06T03:18:19;2.45;;;2.25;;
56457;SDS011;42360;42.918;12.366;2023-05-06T03:20:46;2.70;;;2.50;;
56457;SDS011;42360;42.918;12.366;2023-05-06T03:23:12;4.57;;;1.98;;
56457;SDS011;42360;42.918;12.366;2023-05-06T03:25:37;2.75;;;2.17;;
56457;SDS011;42360;42.918;12.366;2023-05-06T03:28:03;2.47;;;2.28;;
56457;SDS011;42360;42.918;12.366;2023-05-06T03:30:29;2.17;;;1.70;;
56457;SDS011;42360;42.918;12.366;2023-05-06T03:32:54;2.65;;;2.35;;
56457;SDS011;42360;42.918;12.366;2023-05-06T03:35:21;3.33;;;2.70;;
56457;SDS011;42360;42.918;12.366;2023-05-06T03:37:47;2.72;;;2.30;;
56457;SDS011;42360;42.918;12.366;2023-05-06T03:40:12;2.35;;;2.13;;
56457;SDS011;42360;42.918;12.366;2023-05-06T03:42:38;3.15;;;2.08;;
56457;SDS011;42360;42.918;12.366;2023-05-06T03:45:03;2.30;;;2.10;;
56457;SDS011;42360;42.918;12.366;2023-05-06T03:47:30;2.53;;;2.22;;
56457;SDS011;42360;42.918;12.366;2023-05-06T03:49:56;2.58;;;2.33;;
56457;SDS011;42360;42.918;12.366;2023-05-06T03:52:21;2.30;;;2.10;;
56457;SDS011;42360;42.918;12.366;2023-05-06T03:54:47;3.95;;;2.10;;
56457;SDS011;42360;42.918;12.366;2023-05-06T03:57:12;4.90;;;2.45;;
56457;SDS011;42360;42.918;12.366;2023-05-06T03:59:38;3.38;;;2.17;;
56457;SDS011;42360;42.918;12.366;2023-05-06T04:02:03;3.17;;;2.00;;
56457;SDS011;42360;42.918;12.366;2023-05-06T04:04:28;3.42;;;2.15;;
56457;SDS011;42360;42.918;12.366;2023-05-06T04:06:54;2.33;;;2.03;;
56457;SDS011;42360;42.918;12.366;2023-05-06T04:09:19;2.47;;;1.80;;
56457;SDS011;42360;42.918;12.366;2023-05-06T04:11:45;4.55;;;2.40;;
56457;SDS011;42360;42.918;12.366;2023-05-06T04:14:10;2.38;;;2.17;;
56457;SDS011;42360;42.918;12.366;2023-05-06T04:16:36;6.32;;;2.60;;
56457;SDS011;42360;42.918;12.366;2023-05-06T04:19:01;3.20;;;1.88;;
56457;SDS011;42360;42.918;12.366;2023-05-06T04:21:27;2.22;;;2.03;;
56457;SDS011;42360;42.918;12.366;2023-05-06T04:23:53;2.28;;;2.08;;
56457;SDS011;42360;42.918;12.366;2023-05-06T04:26:20;4.00;;;2.25;;
56457;SDS011;42360;42.918;12.366;2023-05-06T04:28:45;3.22;;;2.00;;
56457;SDS011;42360;42.918;12.366;2023-05-06T04:31:11;1.85;;;1.70;;
56457;SDS011;42360;42.918;12.366;2023-05-06T04:33:38;3.90;;;1.90;;
56457;SDS011;42360;42.918;12.366;2023-05-06T04:36:04;1.92;;;1.50;;
56457;SDS011;42360;42.918;12.366;2023-05-06T04:38:30;1.80;;;1.50;;
56457;SDS011;42360;42.918;12.366;2023-05-06T04:40:56;1.77;;;1.67;;
56457;SDS011;42360;42.918;12.366;2023-05-06T04:43:21;2.20;;;1.73;;
56457;SDS011;42360;42.918;12.366;2023-05-06T04:45:47;2.90;;;2.00;;
56457;SDS011;42360;42.918;12.366;2023-05-06T04:48:16;2.13;;;1.92;;
56457;SDS011;42360;42.918;12.366;2023-05-06T04:50:42;1.92;;;1.80;;
56457;SDS011;42360;42.918;12.366;2023-05-06T04:53:08;1.92;;;1.83;;
56457;SDS011;42360;42.918;12.366;2023-05-06T04:55:33;2.63;;;1.95;;
56457;SDS011;42360;42.918;12.366;2023-05-06T04:57:59;2.10;;;1.90;;
56457;SDS011;42360;42.918;12.366;2023-05-06T05:00:24;4.15;;;1.98;;
56457;SDS011;42360;42.918;12.366;2023-05-06T05:02:50;2.15;;;1.75;;
56457;SDS011;42360;42.918;12.366;2023-05-06T05:05:15;1.83;;;1.73;;
56457;SDS011;42360;42.918;12.366;2023-05-06T05:07:41;2.05;;;1.83;;
56457;SDS011;42360;42.918;12.366;2023-05-06T05:10:06;2.95;;;2.00;;
56457;SDS011;42360;42.918;12.366;2023-05-06T05:12:33;2.83;;;2.03;;
56457;SDS011;42360;42.918;12.366;2023-05-06T05:14:58;2.55;;;1.90;;
56457;SDS011;42360;42.918;12.366;2023-05-06T05:17:24;3.38;;;2.00;;
56457;SDS011;42360;42.918;12.366;2023-05-06T05:19:49;2.40;;;2.20;;
56457;SDS011;42360;42.918;12.366;2023-05-06T05:22:15;2.83;;;2.05;;
56457;SDS011;42360;42.918;12.366;2023-05-06T05:24:40;2.25;;;2.05;;
56457;SDS011;42360;42.918;12.366;2023-05-06T05:27:06;2.20;;;2.00;;
56457;SDS011;42360;42.918;12.366;2023-05-06T05:29:31;2.75;;;2.20;;
56457;SDS011;42360;42.918;12.366;2023-05-06T05:31:57;2.35;;;1.67;;
56457;SDS011;42360;42.918;12.366;2023-05-06T05:34:22;2.38;;;1.80;;
56457;SDS011;42360;42.918;12.366;2023-05-06T05:36:48;2.05;;;1.52;;
56457;SDS011;42360;42.918;12.366;2023-05-06T05:39:13;1.70;;;1.60;;
56457;SDS011;42360;42.918;12.366;2023-05-06T05:41:39;3.10;;;1.52;;
56457;SDS011;42360;42.918;12.366;2023-05-06T05:44:04;2.20;;;1.88;;
56457;SDS011;42360;42.918;12.366;2023-05-06T05:46:29;1.90;;;1.50;;
56457;SDS011;42360;42.918;12.366;2023-05-06T05:48:55;2.10;;;1.77;;
56457;SDS011;42360;42.918;12.366;2023-05-06T05:51:21;2.47;;;1.73;;
56457;SDS011;42360;42.918;12.366;2023-05-06T05:53:46;1.90;;;1.60;;
56457;SDS011;42360;42.918;12.366;2023-05-06T05:56:11;2.67;;;1.73;;
56457;SDS011;42360;42.918;12.366;2023-05-06T05:58:37;2.90;;;1.92;;
56457;SDS011;42360;42.918;12.366;2023-05-06T06:01:02;2.83;;;2.20;;
56457;SDS011;42360;42.918;12.366;2023-05-06T06:03:28;2.20;;;1.92;;
56457;SDS011;42360;42.918;12.366;2023-05-06T06:05:53;3.83;;;2.38;;
56457;SDS011;42360;42.918;12.366;2023-05-06T06:08:19;2.22;;;1.90;;
56457;SDS011;42360;42.918;12.366;2023-05-06T06:10:45;2.45;;;2.08;;
56457;SDS011;42360;42.918;12.366;2023-05-06T06:13:11;3.15;;;2.22;;
56457;SDS011;42360;42.918;12.366;2023-05-06T06:15:37;2.28;;;2.00;;
56457;SDS011;42360;42.918;12.366;2023-05-06T06:18:02;2.50;;;2.30;;
56457;SDS011;42360;42.918;12.366;2023-05-06T06:20:28;6.18;;;2.60;;
56457;SDS011;42360;42.918;12.366;2023-05-06T06:22:54;2.22;;;2.03;;
56457;SDS011;42360;42.918;12.366;2023-05-06T06:25:19;3.55;;;2.15;;
56457;SDS011;42360;42.918;12.366;2023-05-06T06:27:45;3.20;;;2.15;;
56457;SDS011;42360;42.918;12.366;2023-05-06T06:30:11;4.22;;;2.13;;
56457;SDS011;42360;42.918;12.366;2023-05-06T06:32:44;3.60;;;2.20;;
56457;SDS011;42360;42.918;12.366;2023-05-06T06:35:12;3.65;;;2.65;;
56457;SDS011;42360;42.918;12.366;2023-05-06T06:37:37;2.65;;;2.45;;
56457;SDS011;42360;42.918;12.366;2023-05-06T06:40:03;3.20;;;2.65;;
56457;SDS011;42360;42.918;12.366;2023-05-06T06:42:28;4.72;;;2.58;;
56457;SDS011;42360;42.918;12.366;2023-05-06T06:44:54;3.60;;;2.38;;
56457;SDS011;42360;42.918;12.366;2023-05-06T06:47:19;4.47;;;2.42;;
56457;SDS011;42360;42.918;12.366;2023-05-06T06:49:45;3.90;;;2.50;;
56457;SDS011;42360;42.918;12.366;2023-05-06T06:52:10;8.52;;;2.95;;
56457;SDS011;42360;42.918;12.366;2023-05-06T06:54:36;4.18;;;3.03;;
56457;SDS011;42360;42.918;12.366;2023-05-06T06:57:02;3.50;;;3.20;;
56457;SDS011;42360;42.918;12.366;2023-05-06T06:59:28;4.45;;;3.72;;
56457;SDS011;42360;42.918;12.366;2023-05-06T07:01:53;2.95;;;2.42;;
56457;SDS011;42360;42.918;12.366;2023-05-06T07:04:19;4.57;;;3.22;;
56457;SDS011;42360;42.918;12.366;2023-05-06T07:06:45;2.97;;;2.67;;
56457;SDS011;42360;42.918;12.366;2023-05-06T07:09:10;4.05;;;2.85;;
56457;SDS011;42360;42.918;12.366;2023-05-06T07:11:36;3.47;;;2.88;;
56457;SDS011;42360;42.918;12.366;2023-05-06T07:14:01;3.13;;;2.83;;
56457;SDS011;42360;42.918;12.366;2023-05-06T07:16:27;3.03;;;2.72;;
56457;SDS011;42360;42.918;12.366;2023-05-06T07:18:52;4.55;;;3.00;;
56457;SDS011;42360;42.918;12.366;2023-05-06T07:21:18;3.55;;;2.90;;
56457;SDS011;42360;42.918;12.366;2023-05-06T07:23:44;3.35;;;3.03;;
56457;SDS011;42360;42.918;12.366;2023-05-06T07:26:09;4.35;;;3.13;;
56457;SDS011;42360;42.918;12.366;2023-05-06T07:28:35;3.20;;;2.90;;
56457;SDS011;42360;42.918;12.366;2023-05-06T07:31:00;3.13;;;2.58;;
56457;SDS011;42360;42.918;12.366;2023-05-06T07:33:26;3.30;;;2.75;;
56457;SDS011;42360;42.918;12.366;2023-05-06T07:35:51;3.60;;;2.67;;
56457;SDS011;42360;42.918;12.366;2023-05-06T07:38:20;4.35;;;2.70;;
56457;SDS011;42360;42.918;12.366;2023-05-06T07:40:46;3.10;;;2.60;;
56457;SDS011;42360;42.918;12.366;2023-05-06T07:43:12;2.92;;;2.72;;
56457;SDS011;42360;42.918;12.366;2023-05-06T07:45:38;4.18;;;2.88;;
56457;SDS011;42360;42.918;12.366;2023-05-06T07:48:03;4.47;;;2.55;;
56457;SDS011;42360;42.918;12.366;2023-05-06T07:50:29;3.97;;;2.90;;
56457;SDS011;42360;42.918;12.366;2023-05-06T07:52:56;4.30;;;2.58;;
56457;SDS011;42360;42.918;12.366;2023-05-06T07:55:21;3.28;;;2.88;;
56457;SDS011;42360;42.918;12.366;2023-05-06T07:57:48;2.92;;;2.72;;
56457;SDS011;42360;42.918;12.366;2023-05-06T08:00:13;4.15;;;3.08;;
56457;SDS011;42360;42.918;12.366;2023-05-06T08:02:39;3.47;;;2.80;;
56457;SDS011;42360;42.918;12.366;2023-05-06T08:05:11;3.28;;;2.80;;
56457;SDS011;42360;42.918;12.366;2023-05-06T08:07:38;2.55;;;2.30;;
56457;SDS011;42360;42.918;12.366;2023-05-06T08:10:05;5.53;;;2.60;;
56457;SDS011;42360;42.918;12.366;2023-05-06T08:12:31;3.40;;;2.47;;
56457;SDS011;42360;42.918;12.366;2023-05-06T08:14:57;4.00;;;2.10;;
56457;SDS011;42360;42.918;12.366;2023-05-06T08:17:23;3.45;;;2.20;;
56457;SDS011;42360;42.918;12.366;2023-05-06T08:19:48;2.50;;;2.30;;
56457;SDS011;42360;42.918;12.366;2023-05-06T08:22:14;1.80;;;1.70;;
56457;SDS011;42360;42.918;12.366;2023-05-06T08:24:40;2.05;;;1.58;;
56457;SDS011;42360;42.918;12.366;2023-05-06T08:27:06;2.00;;;1.77;;
56457;SDS011;42360;42.918;12.366;2023-05-06T08:29:32;3.05;;;2.10;;
56457;SDS011;42360;42.918;12.366;2023-05-06T08:31:58;1.92;;;1.77;;
56457;SDS011;42360;42.918;12.366;2023-05-06T08:34:23;2.53;;;2.10;;
56457;SDS011;42360;42.918;12.366;2023-05-06T08:36:49;2.25;;;2.00;;
56457;SDS011;42360;42.918;12.366;2023-05-06T08:39:14;3.67;;;1.90;;
56457;SDS011;42360;42.918;12.366;2023-05-06T08:41:40;1.95;;;1.83;;
56457;SDS011;42360;42.918;12.366;2023-05-06T08:44:11;1.92;;;1.75;;
56457;SDS011;42360;42.918;12.366;2023-05-06T08:46:40;2.85;;;2.17;;
56457;SDS011;42360;42.918;12.366;2023-05-06T08:49:05;2.47;;;1.70;;
56457;SDS011;42360;42.918;12.366;2023-05-06T08:51:31;2.38;;;1.77;;
56457;SDS011;42360;42.918;12.366;2023-05-06T08:53:58;2.83;;;1.90;;
56457;SDS011;42360;42.918;12.366;2023-05-06T08:56:28;4.13;;;1.95;;
56457;SDS011;42360;42.918;12.366;2023-05-06T08:58:55;3.00;;;2.25;;
56457;SDS011;42360;42.918;12.366;2023-05-06T09:01:20;2.95;;;1.90;;
56457;SDS011;42360;42.918;12.366;2023-05-06T09:03:46;2.03;;;1.67;;
56457;SDS011;42360;42.918;12.366;2023-05-06T09:06:11;3.67;;;2.00;;
56457;SDS011;42360;42.918;12.366;2023-05-06T09:08:37;2.85;;;1.83;;
56457;SDS011;42360;42.918;12.366;2023-05-06T09:11:17;2.42;;;2.20;;
56457;SDS011;42360;42.918;12.366;2023-05-06T09:13:43;2.08;;;1.77;;
56457;SDS011;42360;42.918;12.366;2023-05-06T09:16:09;3.95;;;1.95;;
56457;SDS011;42360;42.918;12.366;2023-05-06T09:18:35;4.40;;;2.03;;
56457;SDS011;42360;42.918;12.366;2023-05-06T09:21:02;4.78;;;1.73;;
56457;SDS011;42360;42.918;12.366;2023-05-06T09:23:28;2.00;;;1.80;;
56457;SDS011;42360;42.918;12.366;2023-05-06T09:25:54;2.80;;;2.15;;
56457;SDS011;42360;42.918;12.366;2023-05-06T09:28:21;3.22;;;1.65;;
56457;SDS011;42360;42.918;12.366;2023-05-06T09:30:46;3.83;;;1.73;;
56457;SDS011;42360;42.918;12.366;2023-05-06T09:33:12;3.40;;;2.55;;
56457;SDS011;42360;42.918;12.366;2023-05-06T09:35:38;4.85;;;1.88;;
56457;SDS011;42360;42.918;12.366;2023-05-06T09:38:06;2.25;;;1.42;;
56457;SDS011;42360;42.918;12.366;2023-05-06T09:40:32;2.30;;;1.60;;
56457;SDS011;42360;42.918;12.366;2023-05-06T09:42:59;1.60;;;1.50;;
56457;SDS011;42360;42.918;12.366;2023-05-06T09:45:25;1.77;;;1.42;;
56457;SDS011;42360;42.918;12.366;2023-05-06T09:47:51;3.40;;;2.28;;
56457;SDS011;42360;42.918;12.366;2023-05-06T09:50:19;2.45;;;1.50;;
56457;SDS011;42360;42.918;12.366;2023-05-06T09:52:45;1.40;;;1.30;;
56457;SDS011;42360;42.918;12.366;2023-05-06T09:55:13;2.20;;;1.30;;
56457;SDS011;42360;42.918;12.366;2023-05-06T09:57:39;2.05;;;1.20;;
56457;SDS011;42360;42.918;12.366;2023-05-06T10:00:07;2.75;;;1.48;;
56457;SDS011;42360;42.918;12.366;2023-05-06T10:02:33;2.63;;;1.38;;
56457;SDS011;42360;42.918;12.366;2023-05-06T10:04:59;2.05;;;1.55;;
56457;SDS011;42360;42.918;12.366;2023-05-06T10:07:29;2.28;;;1.30;;
56457;SDS011;42360;42.918;12.366;2023-05-06T10:09:56;1.20;;;1.10;;
56457;SDS011;42360;42.918;12.366;2023-05-06T10:12:23;2.75;;;1.25;;
56457;SDS011;42360;42.918;12.366;2023-05-06T10:14:49;2.22;;;0.80;;
56457;SDS011;42360;42.918;12.366;2023-05-06T10:17:15;1.05;;;1.05;;
56457;SDS011;42360;42.918;12.366;2023-05-06T10:19:43;4.47;;;1.27;;
56457;SDS011;42360;42.918;12.366;2023-05-06T10:22:14;1.60;;;1.15;;
56457;SDS011;42360;42.918;12.366;2023-05-06T10:25:03;1.23;;;1.00;;
56457;SDS011;42360;42.918;12.366;2023-05-06T10:27:32;1.45;;;1.10;;
56457;SDS011;42360;42.918;12.366;2023-05-06T10:29:59;1.17;;;0.90;;
56457;SDS011;42360;42.918;12.366;2023-05-06T10:32:25;1.40;;;1.20;;
56457;SDS011;42360;42.918;12.366;2023-05-06T10:34:55;2.20;;;1.00;;
56457;SDS011;42360;42.918;12.366;2023-05-06T10:37:29;2.15;;;1.08;;
56457;SDS011;42360;42.918;12.366;2023-05-06T10:39:55;2.47;;;0.95;;
56457;SDS011;42360;42.918;12.366;2023-05-06T10:42:31;1.63;;;0.90;;
56457;SDS011;42360;42.918;12.366;2023-05-06T10:45:01;1.88;;;1.00;;
56457;SDS011;42360;42.918;12.366;2023-05-06T10:47:38;1.30;;;0.88;;
56457;SDS011;42360;42.918;12.366;2023-05-06T10:50:25;0.75;;;0.75;;
56457;SDS011;42360;42.918;12.366;2023-05-06T10:52:55;1.88;;;1.10;;
56457;SDS011;42360;42.918;12.366;2023-05-06T10:55:30;1.75;;;0.98;;
56457;SDS011;42360;42.918;12.366;2023-05-06T10:58:18;2.55;;;0.93;;
56457;SDS011;42360;42.918;12.366;2023-05-06T11:00:51;1.20;;;0.95;;
56457;SDS011;42360;42.918;12.366;2023-05-06T11:03:18;0.80;;;0.80;;
56457;SDS011;42360;42.918;12.366;2023-05-06T11:05:50;1.92;;;0.82;;
56457;SDS011;42360;42.918;12.366;2023-05-06T11:08:25;0.82;;;0.70;;
56457;SDS011;42360;42.918;12.366;2023-05-06T11:10:51;1.92;;;1.20;;
56457;SDS011;42360;42.918;12.366;2023-05-06T11:13:27;1.10;;;1.00;;
56457;SDS011;42360;42.918;12.366;2023-05-06T11:15:54;1.45;;;0.90;;
56457;SDS011;42360;42.918;12.366;2023-05-06T11:20:49;1.63;;;0.73;;
56457;SDS011;42360;42.918;12.366;2023-05-06T11:23:17;0.80;;;0.80;;
56457;SDS011;42360;42.918;12.366;2023-05-06T11:25:43;1.00;;;0.90;;
56457;SDS011;42360;42.918;12.366;2023-05-06T11:28:11;0.90;;;0.90;;
56457;SDS011;42360;42.918;12.366;2023-05-06T11:30:41;0.75;;;0.75;;
56457;SDS011;42360;42.918;12.366;2023-05-06T11:33:08;1.67;;;0.80;;
56457;SDS011;42360;42.918;12.366;2023-05-06T11:35:42;0.93;;;0.90;;
56457;SDS011;42360;42.918;12.366;2023-05-06T11:38:07;0.75;;;0.75;;
56457;SDS011;42360;42.918;12.366;2023-05-06T11:40:33;1.33;;;1.23;;
56457;SDS011;42360;42.918;12.366;2023-05-06T11:43:11;1.63;;;1.33;;
56457;SDS011;42360;42.918;12.366;2023-05-06T11:48:06;1.10;;;0.80;;
56457;SDS011;42360;42.918;12.366;2023-05-06T11:50:31;1.70;;;1.00;;
56457;SDS011;42360;42.918;12.366;2023-05-06T11:52:57;1.58;;;0.90;;
56457;SDS011;42360;42.918;12.366;2023-05-06T11:55:22;1.10;;;0.80;;
56457;SDS011;42360;42.918;12.366;2023-05-06T11:57:48;1.00;;;0.90;;
56457;SDS011;42360;42.918;12.366;2023-05-06T12:00:14;0.80;;;0.80;;
56457;SDS011;42360;42.918;12.366;2023-05-06T12:02:39;0.82;;;0.68;;
56457;SDS011;42360;42.918;12.366;2023-05-06T12:05:05;1.17;;;0.85;;
56457;SDS011;42360;42.918;12.366;2023-05-06T12:07:31;3.55;;;1.25;;
56457;SDS011;42360;42.918;12.366;2023-05-06T12:09:57;2.83;;;1.10;;
56457;SDS011;42360;42.918;12.366;2023-05-06T12:12:23;1.70;;;0.90;;
56457;SDS011;42360;42.918;12.366;2023-05-06T12:14:49;1.50;;;0.88;;
56457;SDS011;42360;42.918;12.366;2023-05-06T12:17:16;1.65;;;1.00;;
56457;SDS011;42360;42.918;12.366;2023-05-06T12:19:41;0.70;;;0.70;;
56457;SDS011;42360;42.918;12.366;2023-05-06T12:22:20;0.85;;;0.68;;
56457;SDS011;42360;42.918;12.366;2023-05-06T12:24:46;0.77;;;0.73;;
56457;SDS011;42360;42.918;12.366;2023-05-06T12:27:12;2.25;;;1.20;;
56457;SDS011;42360;42.918;12.366;2023-05-06T12:29:38;1.00;;;0.90;;
56457;SDS011;42360;42.918;12.366;2023-05-06T12:32:07;1.50;;;0.90;;
56457;SDS011;42360;42.918;12.366;2023-05-06T12:34:37;1.40;;;0.90;;
56457;SDS011;42360;42.918;12.366;2023-05-06T12:37:04;1.20;;;0.70;;
56457;SDS011;42360;42.918;12.366;2023-05-06T12:39:33;1.00;;;0.90;;
56457;SDS011;42360;42.918;12.366;2023-05-06T12:42:00;1.20;;;1.10;;
56457;SDS011;42360;42.918;12.366;2023-05-06T12:47:01;0.80;;;0.80;;
56457;SDS011;42360;42.918;12.366;2023-05-06T12:49:42;0.70;;;0.70;;
56457;SDS011;42360;42.918;12.366;2023-05-06T12:52:11;0.85;;;0.73;;
56457;SDS011;42360;42.918;12.366;2023-05-06T12:54:36;1.10;;;0.70;;
56457;SDS011;42360;42.918;12.366;2023-05-06T12:57:02;1.67;;;0.88;;
56457;SDS011;42360;42.918;12.366;2023-05-06T12:59:28;0.88;;;0.88;;
56457;SDS011;42360;42.918;12.366;2023-05-06T13:01:56;2.35;;;1.02;;
56457;SDS011;42360;42.918;12.366;2023-05-06T13:04:22;1.15;;;0.93;;
56457;SDS011;42360;42.918;12.366;2023-05-06T13:06:48;1.77;;;0.70;;
56457;SDS011;42360;42.918;12.366;2023-05-06T13:09:14;2.30;;;0.90;;
56457;SDS011;42360;42.918;12.366;2023-05-06T13:11:39;1.10;;;1.00;;
56457;SDS011;42360;42.918;12.366;2023-05-06T13:14:05;2.03;;;0.70;;
56457;SDS011;42360;42.918;12.366;2023-05-06T13:16:30;0.80;;;0.80;;
56457;SDS011;42360;42.918;12.366;2023-05-06T13:18:56;1.35;;;0.90;;
56457;SDS011;42360;42.918;12.366;2023-05-06T13:21:22;0.95;;;0.80;;
56457;SDS011;42360;42.918;12.366;2023-05-06T13:23:47;1.15;;;0.80;;
56457;SDS011;42360;42.918;12.366;2023-05-06T13:26:13;1.00;;;1.00;;
56457;SDS011;42360;42.918;12.366;2023-05-06T13:28:39;0.80;;;0.70;;
56457;SDS011;42360;42.918;12.366;2023-05-06T13:31:05;1.20;;;0.77;;
56457;SDS011;42360;42.918;12.366;2023-05-06T13:33:32;0.82;;;0.80;;
56457;SDS011;42360;42.918;12.366;2023-05-06T13:35:58;1.10;;;0.80;;
56457;SDS011;42360;42.918;12.366;2023-05-06T13:38:23;0.80;;;0.80;;
56457;SDS011;42360;42.918;12.366;2023-05-06T13:40:49;1.05;;;0.90;;
56457;SDS011;42360;42.918;12.366;2023-05-06T13:43:18;1.33;;;0.80;;
56457;SDS011;42360;42.918;12.366;2023-05-06T13:45:44;1.58;;;1.15;;
56457;SDS011;42360;42.918;12.366;2023-05-06T13:48:10;2.42;;;1.48;;
56457;SDS011;42360;42.918;12.366;2023-05-06T13:50:36;2.00;;;1.50;;
56457;SDS011;42360;42.918;12.366;2023-05-06T13:53:02;2.72;;;1.65;;
56457;SDS011;42360;42.918;12.366;2023-05-06T13:55:28;2.38;;;1.50;;
56457;SDS011;42360;42.918;12.366;2023-05-06T13:57:54;3.30;;;2.08;;
56457;SDS011;42360;42.918;12.366;2023-05-06T14:00:19;0.95;;;0.85;;
56457;SDS011;42360;42.918;12.366;2023-05-06T14:02:45;1.10;;;0.80;;
56457;SDS011;42360;42.918;12.366;2023-05-06T14:05:10;1.30;;;0.75;;
56457;SDS011;42360;42.918;12.366;2023-05-06T14:07:36;0.70;;;0.70;;
56457;SDS011;42360;42.918;12.366;2023-05-06T14:10:01;1.50;;;0.80;;
56457;SDS011;42360;42.918;12.366;2023-05-06T14:12:28;1.20;;;1.10;;
56457;SDS011;42360;42.918;12.366;2023-05-06T14:14:53;2.35;;;1.73;;
56457;SDS011;42360;42.918;12.366;2023-05-06T14:17:18;0.98;;;0.82;;
56457;SDS011;42360;42.918;12.366;2023-05-06T14:19:44;1.88;;;1.10;;
56457;SDS011;42360;42.918;12.366;2023-05-06T14:22:09;1.15;;;0.90;;
56457;SDS011;42360;42.918;12.366;2023-05-06T14:24:35;0.88;;;0.80;;
56457;SDS011;42360;42.918;12.366;2023-05-06T14:27:01;4.47;;;1.00;;
56457;SDS011;42360;42.918;12.366;2023-05-06T14:29:26;3.90;;;1.00;;
56457;SDS011;42360;42.918;12.366;2023-05-06T14:31:52;2.30;;;1.02;;
56457;SDS011;42360;42.918;12.366;2023-05-06T14:34:17;1.27;;;0.98;;
56457;SDS011;42360;42.918;12.366;2023-05-06T14:36:43;2.95;;;1.10;;
56457;SDS011;42360;42.918;12.366;2023-05-06T14:39:08;2.80;;;1.05;;
56457;SDS011;42360;42.918;12.366;2023-05-06T14:41:34;1.63;;;0.90;;
56457;SDS011;42360;42.918;12.366;2023-05-06T14:43:59;2.35;;;0.90;;